Time;durP1;ratioP1;P1;durP2;ratioP2;P2;SDS_P1;SDS_P2;PMS_P1;PMS_P2;Temp;Humidity;BMP_temperature;BMP_pressure;BME280_temperature;BME280_humidity;BME280_pressure;Samples;Min_cycle;Max_cycle;Signal;HPM_P1;HPM_P2
2023/10/23 00:04:33;;;;;;;9.00;8.13;;;;;;;;;;12628094;23;20025;-68
2023/10/23 00:09:30;;;;;;;11.98;8.50;;;;;;;;;;12626269;23;20435;-68
2023/10/23 00:14:27;;;;;;;8.48;7.75;;;;;;;;;;12627482;23;20522;-68
2023/10/23 00:19:23;;;;;;;8.80;8.07;;;;;;;;;;12629904;23;20362;-68
2023/10/23 00:24:19;;;;;;;9.52;7.40;;;;;;;;;;12630602;23;20080;-68
2023/10/23 00:29:16;;;;;;;8.00;7.30;;;;;;;;;;12630857;23;20028;-68
2023/10/23 00:34:12;;;;;;;9.77;8.25;;;;;;;;;;12633821;23;20024;-68
2023/10/23 00:39:08;;;;;;;9.50;8.57;;;;;;;;;;12634563;23;20028;-68
2023/10/23 00:44:05;;;;;;;8.10;7.40;;;;;;;;;;12634368;23;20029;-69
2023/10/23 00:49:01;;;;;;;9.45;8.65;;;;;;;;;;12634373;23;20367;-68
2023/10/23 00:53:59;;;;;;;9.18;8.40;;;;;;;;;;12633739;23;20086;-67
2023/10/23 00:58:56;;;;;;;9.45;8.50;;;;;;;;;;12634172;23;20104;-67
2023/10/23 01:03:52;;;;;;;8.50;7.80;;;;;;;;;;12632921;23;20048;-68
2023/10/23 01:08:49;;;;;;;10.23;9.00;;;;;;;;;;12633436;23;20486;-68
2023/10/23 01:13:45;;;;;;;9.88;8.80;;;;;;;;;;12635785;23;20050;-68
2023/10/23 01:18:42;;;;;;;11.02;8.75;;;;;;;;;;12636010;23;20024;-68
2023/10/23 01:23:40;;;;;;;9.30;8.50;;;;;;;;;;12634673;23;20027;-70
2023/10/23 01:28:37;;;;;;;9.43;8.18;;;;;;;;;;12635554;23;20024;-69
2023/10/23 01:33:33;;;;;;;8.63;7.82;;;;;;;;;;12636468;23;20086;-69
2023/10/23 01:38:30;;;;;;;11.55;8.73;;;;;;;;;;12636765;23;20028;-69
2023/10/23 01:43:26;;;;;;;9.60;8.80;;;;;;;;;;12632876;23;20588;-68
2023/10/23 01:48:23;;;;;;;9.48;8.70;;;;;;;;;;12636204;23;20021;-68
2023/10/23 01:53:19;;;;;;;10.00;9.00;;;;;;;;;;12635642;23;20028;-69
2023/10/23 01:58:15;;;;;;;8.63;7.95;;;;;;;;;;12633217;23;20039;-69
2023/10/23 02:03:12;;;;;;;8.93;8.23;;;;;;;;;;12634998;23;20025;-67
2023/10/23 02:08:08;;;;;;;18.83;8.52;;;;;;;;;;12634912;23;20048;-67
2023/10/23 02:13:05;;;;;;;9.07;7.85;;;;;;;;;;12635598;23;20025;-68
2023/10/23 02:18:01;;;;;;;9.18;8.45;;;;;;;;;;12635811;23;20024;-69
2023/10/23 02:22:57;;;;;;;9.20;8.30;;;;;;;;;;12633021;23;20681;-69
2023/10/23 02:27:54;;;;;;;8.77;8.00;;;;;;;;;;12634764;23;20021;-68
2023/10/23 02:32:50;;;;;;;12.23;8.82;;;;;;;;;;12635013;23;20024;-69
2023/10/23 02:37:49;;;;;;;11.30;9.20;;;;;;;;;;12635312;23;20033;-69
2023/10/23 02:42:45;;;;;;;10.10;8.95;;;;;;;;;;12634256;23;20025;-69
2023/10/23 02:47:41;;;;;;;11.00;9.98;;;;;;;;;;12635299;23;20020;-67
2023/10/23 02:52:38;;;;;;;11.05;9.77;;;;;;;;;;12633900;23;20032;-67
2023/10/23 02:57:34;;;;;;;9.52;8.80;;;;;;;;;;12635109;23;20307;-67
2023/10/23 03:02:30;;;;;;;9.95;9.10;;;;;;;;;;12634415;23;20028;-68
2023/10/23 03:07:27;;;;;;;11.68;9.15;;;;;;;;;;12634318;23;20025;-68
2023/10/23 03:12:23;;;;;;;10.30;9.30;;;;;;;;;;12625432;23;20033;-68
2023/10/23 03:17:20;;;;;;;10.93;9.80;;;;;;;;;;12633893;23;20585;-68
2023/10/23 03:22:17;;;;;;;11.40;10.23;;;;;;;;;;12634214;23;20040;-68
2023/10/23 03:27:13;;;;;;;10.45;9.35;;;;;;;;;;12634621;23;20024;-68
2023/10/23 03:32:10;;;;;;;10.23;9.43;;;;;;;;;;12628000;23;20075;-70
2023/10/23 03:37:06;;;;;;;10.77;9.75;;;;;;;;;;12634652;23;20482;-70
2023/10/23 03:42:02;;;;;;;10.52;9.63;;;;;;;;;;12634356;23;20020;-70
2023/10/23 03:46:59;;;;;;;10.05;9.25;;;;;;;;;;12635356;23;20024;-69
2023/10/23 03:51:55;;;;;;;10.00;9.10;;;;;;;;;;12630358;23;20035;-70
2023/10/23 03:56:51;;;;;;;11.70;9.68;;;;;;;;;;12634551;23;20061;-70
2023/10/23 04:01:48;;;;;;;11.45;10.35;;;;;;;;;;12631786;23;20079;-70
2023/10/23 04:06:45;;;;;;;10.80;9.80;;;;;;;;;;12631744;23;20051;-70
2023/10/23 04:11:42;;;;;;;11.63;10.45;;;;;;;;;;12636986;23;20028;-71
2023/10/23 04:16:39;;;;;;;11.40;10.40;;;;;;;;;;12638440;23;20030;-71
2023/10/23 04:21:39;;;;;;;11.02;9.98;;;;;;;;;;12636197;23;20336;-71
2023/10/23 04:26:35;;;;;;;10.63;9.73;;;;;;;;;;12632742;23;20063;-71
2023/10/23 04:31:34;;;;;;;12.40;10.38;;;;;;;;;;12636627;23;20021;-70
2023/10/23 04:36:30;;;;;;;12.98;10.45;;;;;;;;;;12631572;23;20530;-71
2023/10/23 04:41:26;;;;;;;10.93;9.93;;;;;;;;;;12636409;23;20021;-69
2023/10/23 04:46:23;;;;;;;11.55;10.38;;;;;;;;;;12637966;23;20032;-69
2023/10/23 04:51:19;;;;;;;10.98;10.00;;;;;;;;;;12639843;23;20470;-70
2023/10/23 05:01:33;;;;;;;11.87;10.77;;;;;;;;;;12629372;22;20627;-71
2023/10/23 05:12:32;;;;;;;13.70;12.50;;;;;;;;;;12633085;23;20020;-71
2023/10/23 05:17:29;;;;;;;12.77;11.65;;;;;;;;;;12636072;23;20028;-72
2023/10/23 05:22:25;;;;;;;13.30;11.95;;;;;;;;;;12637223;23;20095;-72
2023/10/23 05:27:21;;;;;;;13.45;12.13;;;;;;;;;;12636209;23;20363;-72
2023/10/23 05:32:18;;;;;;;12.43;11.23;;;;;;;;;;12636875;23;20048;-72
2023/10/23 05:37:37;;;;;;;15.95;12.85;;;;;;;;;;12638948;22;20359;-72
2023/10/23 05:42:33;;;;;;;14.77;13.00;;;;;;;;;;12620762;23;20104;-72
2023/10/23 05:47:30;;;;;;;14.98;12.77;;;;;;;;;;12634759;23;20359;-71
2023/10/23 05:52:26;;;;;;;14.35;13.05;;;;;;;;;;12637135;23;20025;-71
2023/10/23 05:57:23;;;;;;;14.40;13.10;;;;;;;;;;12636377;23;20040;-71
2023/10/23 06:02:19;;;;;;;13.65;12.45;;;;;;;;;;12637435;23;20035;-71
2023/10/23 06:07:21;;;;;;;14.90;13.40;;;;;;;;;;12624014;22;20028;-73
2023/10/23 06:12:18;;;;;;;15.50;13.93;;;;;;;;;;12636027;23;20039;-74
2023/10/23 06:17:14;;;;;;;15.13;13.05;;;;;;;;;;12636665;23;20268;-74
2023/10/23 06:22:10;;;;;;;14.68;13.25;;;;;;;;;;12636462;23;20033;-73
2023/10/23 06:27:07;;;;;;;15.02;12.88;;;;;;;;;;12636191;23;20108;-73
2023/10/23 06:32:03;;;;;;;14.25;12.95;;;;;;;;;;12635549;23;20300;-73
2023/10/23 06:37:00;;;;;;;14.98;13.30;;;;;;;;;;12602744;22;20029;-73
2023/10/23 06:41:56;;;;;;;16.35;14.40;;;;;;;;;;12612466;23;20104;-73
2023/10/23 06:46:52;;;;;;;14.52;13.20;;;;;;;;;;12635619;23;20354;-73
2023/10/23 06:51:49;;;;;;;15.43;13.98;;;;;;;;;;12635800;23;20051;-73
2023/10/23 06:57:07;;;;;;;18.02;14.63;;;;;;;;;;12632994;22;20017;-73
2023/10/23 07:02:21;;;;;;;17.75;15.93;;;;;;;;;;12514431;23;20017;-73
2023/10/23 07:07:18;;;;;;;19.63;14.52;;;;;;;;;;12629699;23;20024;-73
2023/10/23 07:12:25;;;;;;;16.15;14.48;;;;;;;;;;12634504;23;20107;-73
2023/10/23 07:17:22;;;;;;;16.83;15.23;;;;;;;;;;12635370;23;20335;-73
2023/10/23 07:22:18;;;;;;;17.75;16.08;;;;;;;;;;12635373;23;20028;-73
2023/10/23 07:27:18;;;;;;;18.20;15.88;;;;;;;;;;12647080;22;20410;-73
2023/10/23 07:32:14;;;;;;;17.98;16.08;;;;;;;;;;12634836;23;20020;-73
2023/10/23 07:37:17;;;;;;;18.23;15.32;;;;;;;;;;12635037;23;20024;-73
2023/10/23 07:42:15;;;;;;;19.63;17.52;;;;;;;;;;12636967;23;20115;-73
2023/10/23 07:53:02;;;;;;;25.55;20.63;;;;;;;;;;12598713;23;20055;-73
2023/10/23 07:58:00;;;;;;;27.67;19.35;;;;;;;;;;12638740;23;20427;-73
2023/10/23 08:02:56;;;;;;;28.67;19.90;;;;;;;;;;12638424;23;20362;-73
2023/10/23 08:07:53;;;;;;;26.70;21.52;;;;;;;;;;12631699;23;20024;-73
2023/10/23 08:12:49;;;;;;;24.60;20.08;;;;;;;;;;12637355;23;20076;-73
2023/10/23 08:47:03;;;;;;;34.10;22.60;;;;;;;;;;12566835;23;20474;-73
2023/10/23 08:52:01;;;;;;;28.33;23.63;;;;;;;;;;12661542;23;20025;-73
2023/10/23 08:57:40;;;;;;;32.63;25.92;;;;;;;;;;12637051;22;20542;-73
2023/10/23 09:14:53;;;;;;;;;;;;;;;;;;;;;
2023/10/23 09:32:21;;;;;;;27.23;23.00;;;;;;;;;;12532695;23;20592;-73
2023/10/23 09:38:26;;;;;;;;;;;;;;;;;;;;;
2023/10/23 09:49:26;;;;;;;30.85;27.42;;;;;;;;;;12628280;23;20042;-73
2023/10/23 10:24:21;;;;;;;28.23;25.42;;;;;;;;;;12617441;23;20494;-74
2023/10/23 10:29:18;;;;;;;24.38;21.77;;;;;;;;;;12636200;23;20020;-73
2023/10/23 10:34:14;;;;;;;22.67;19.48;;;;;;;;;;12635707;23;20048;-73
2023/10/23 10:39:43;;;;;;;22.20;18.00;;;;;;;;;;12635579;23;20027;-73
2023/10/23 10:44:56;;;;;;;19.73;17.05;;;;;;;;;;12635693;23;20051;-74
2023/10/23 10:49:52;;;;;;;18.10;14.65;;;;;;;;;;12635241;23;20083;-74
2023/10/23 10:54:48;;;;;;;19.73;14.18;;;;;;;;;;12635839;23;20074;-74
2023/10/23 10:59:44;;;;;;;14.45;10.40;;;;;;;;;;12635354;23;20216;-74
2023/10/23 11:04:41;;;;;;;9.57;8.57;;;;;;;;;;12635312;23;20102;-74
2023/10/23 11:09:37;;;;;;;8.13;6.53;;;;;;;;;;12634705;23;20021;-75
2023/10/23 11:38:37;;;;;;;14.52;6.10;;;;;;;;;;12618087;22;20591;-74
2023/10/23 11:56:31;;;;;;;8.65;7.72;;;;;;;;;;12375165;23;20028;-74
2023/10/23 12:02:36;;;;;;;;;;;;;;;;;;;;;
2023/10/23 12:31:43;;;;;;;7.30;6.60;;;;;;;;;;12332432;23;20011;-73
2023/10/23 12:49:17;;;;;;;;;;;;;;;;;;;;;
2023/10/23 12:59:55;;;;;;;8.00;7.20;;;;;;;;;;12633706;23;20024;-73
2023/10/23 13:04:52;;;;;;;7.15;6.43;;;;;;;;;;12631663;23;20083;-73
2023/10/23 13:09:48;;;;;;;7.72;6.60;;;;;;;;;;12637110;23;20017;-73
2023/10/23 13:14:46;;;;;;;8.48;7.15;;;;;;;;;;12635698;23;20024;-73
2023/10/23 13:19:42;;;;;;;7.53;6.78;;;;;;;;;;12636712;23;20031;-73
2023/10/23 13:42:25;;;;;;;;;;;;;;;;;;;;;
2023/10/23 13:48:45;;;;;;;8.02;6.93;;;;;;;;;;12641272;23;20116;-73
2023/10/23 14:19:02;;;;;;;;;;;;;;;;;;;;;
2023/10/23 14:24:54;;;;;;;7.43;6.70;;;;;;;;;;12507056;23;20348;-73
2023/10/23 14:31:06;;;;;;;7.72;7.13;;;;;;;;;;12462514;23;20029;-73
2023/10/23 14:48:15;;;;;;;9.45;6.63;;;;;;;;;;12584047;23;20024;-73
2023/10/23 14:53:12;;;;;;;8.38;6.68;;;;;;;;;;12628936;23;20028;-73
2023/10/23 14:58:08;;;;;;;8.77;7.88;;;;;;;;;;12635492;23;20079;-73
2023/10/23 15:25:49;;;;;;;8.37;7.67;;;;;;;;;;12505443;22;20028;-73
2023/10/23 15:30:50;;;;;;;8.80;7.90;;;;;;;;;;12632639;23;20042;-73
2023/10/23 15:35:51;;;;;;;9.10;8.27;;;;;;;;;;12635769;23;20017;-73
2023/10/23 15:40:48;;;;;;;9.13;8.35;;;;;;;;;;12633135;23;20017;-73
2023/10/23 16:02:19;;;;;;;12.68;10.07;;;;;;;;;;12634597;23;20013;-73
2023/10/23 16:07:16;;;;;;;10.63;9.57;;;;;;;;;;12636792;23;20470;-73
2023/10/23 16:12:13;;;;;;;10.00;9.27;;;;;;;;;;12638426;23;20055;-73
2023/10/23 16:29:58;;;;;;;;;;;;;;;;;;;;;
2023/10/23 16:35:44;;;;;;;10.95;9.90;;;;;;;;;;12604435;22;20027;-73
2023/10/23 16:40:41;;;;;;;11.45;10.25;;;;;;;;;;12627927;23;20074;-73
2023/10/23 16:51:27;;;;;;;11.65;10.55;;;;;;;;;;12639778;22;20103;-73
2023/10/23 16:56:55;;;;;;;13.07;11.52;;;;;;;;;;12620721;22;20111;-73
2023/10/23 17:02:38;;;;;;;12.55;11.20;;;;;;;;;;12634230;23;20828;-73
2023/10/23 17:35:55;;;;;;;14.83;12.83;;;;;;;;;;12641334;22;20524;-72
2023/10/23 17:40:52;;;;;;;13.00;11.35;;;;;;;;;;12634980;23;20040;-71
2023/10/23 17:45:50;;;;;;;16.38;13.35;;;;;;;;;;12634861;23;20021;-72
2023/10/23 17:50:46;;;;;;;17.55;13.27;;;;;;;;;;12635535;23;20020;-72
2023/10/23 17:55:42;;;;;;;19.42;14.40;;;;;;;;;;12632288;23;20020;-72
2023/10/23 18:00:39;;;;;;;16.88;15.15;;;;;;;;;;12630760;23;20024;-72
2023/10/23 18:11:07;;;;;;;15.95;14.18;;;;;;;;;;12617372;22;20092;-72
2023/10/23 18:27:53;;;;;;;20.63;15.25;;;;;;;;;;12635262;22;20032;-73
2023/10/23 18:38:44;;;;;;;15.27;13.68;;;;;;;;;;12633772;22;20044;-73
2023/10/23 19:00:52;;;;;;;15.60;12.43;;;;;;;;;;12540651;23;20024;-72
2023/10/23 19:05:52;;;;;;;14.27;12.88;;;;;;;;;;12628336;23;20079;-73
2023/10/23 19:10:49;;;;;;;13.65;12.20;;;;;;;;;;12632617;23;20024;-72
2023/10/23 19:15:46;;;;;;;18.17;12.18;;;;;;;;;;12633035;23;20031;-73
2023/10/23 19:20:42;;;;;;;14.20;12.10;;;;;;;;;;12627544;23;20024;-69
2023/10/23 19:25:38;;;;;;;12.40;11.18;;;;;;;;;;12634117;23;20024;-69
2023/10/23 19:30:35;;;;;;;12.57;11.10;;;;;;;;;;12634087;23;20024;-69
2023/10/23 19:35:32;;;;;;;13.27;11.85;;;;;;;;;;12633016;23;20028;-70
2023/10/23 19:40:28;;;;;;;13.05;11.82;;;;;;;;;;12641286;23;20099;-69
2023/10/23 19:45:25;;;;;;;12.65;11.35;;;;;;;;;;12640736;23;20087;-69
2023/10/23 19:50:21;;;;;;;13.52;12.27;;;;;;;;;;12638038;23;27308;-70
2023/10/23 19:55:19;;;;;;;14.07;11.38;;;;;;;;;;12638581;23;20090;-69
2023/10/23 20:00:35;;;;;;;13.32;11.98;;;;;;;;;;12640101;23;20451;-69
2023/10/23 20:05:33;;;;;;;13.35;10.35;;;;;;;;;;12635604;23;20024;-69
2023/10/23 20:10:29;;;;;;;14.95;10.85;;;;;;;;;;12641538;23;20025;-69
2023/10/23 20:15:26;;;;;;;17.23;11.00;;;;;;;;;;12638602;23;20025;-69
2023/10/23 20:20:23;;;;;;;16.92;11.82;;;;;;;;;;12640199;23;20731;-69
2023/10/23 20:25:19;;;;;;;11.63;10.52;;;;;;;;;;12635282;23;20016;-70
2023/10/23 20:30:16;;;;;;;12.40;10.95;;;;;;;;;;12640427;23;20059;-69
2023/10/23 20:35:12;;;;;;;15.77;11.13;;;;;;;;;;12642335;23;20651;-68
2023/10/23 20:40:09;;;;;;;11.82;10.68;;;;;;;;;;12640138;23;20020;-68
2023/10/23 20:45:05;;;;;;;11.52;10.38;;;;;;;;;;12638335;23;20358;-70
2023/10/23 20:50:02;;;;;;;11.18;10.02;;;;;;;;;;12637206;23;20021;-70
2023/10/23 20:54:59;;;;;;;13.77;11.50;;;;;;;;;;12637404;23;20090;-69
2023/10/23 20:59:55;;;;;;;12.18;10.98;;;;;;;;;;12636725;23;20403;-69
2023/10/23 21:04:52;;;;;;;12.82;10.43;;;;;;;;;;12637725;23;20035;-69
2023/10/23 21:09:48;;;;;;;11.48;10.38;;;;;;;;;;12631510;23;20020;-69
2023/10/23 21:14:47;;;;;;;11.23;10.18;;;;;;;;;;12636983;23;20527;-69
2023/10/23 21:19:44;;;;;;;10.50;9.50;;;;;;;;;;12637655;23;20045;-70
2023/10/23 21:24:41;;;;;;;10.75;9.70;;;;;;;;;;12634612;23;20079;-70
2023/10/23 21:29:37;;;;;;;10.57;9.40;;;;;;;;;;12632002;23;20650;-70
2023/10/23 21:34:34;;;;;;;9.82;8.82;;;;;;;;;;12636646;23;20103;-70
2023/10/23 21:39:30;;;;;;;10.43;9.38;;;;;;;;;;12636834;23;20050;-70
2023/10/23 21:44:27;;;;;;;10.18;9.18;;;;;;;;;;12635886;23;20020;-69
2023/10/23 21:49:23;;;;;;;10.65;9.32;;;;;;;;;;12636636;23;20044;-68
2023/10/23 21:54:20;;;;;;;10.70;9.38;;;;;;;;;;12636199;23;20475;-69
2023/10/23 21:59:18;;;;;;;9.38;8.40;;;;;;;;;;12635821;23;20085;-69
2023/10/23 22:04:14;;;;;;;10.32;9.35;;;;;;;;;;12636363;23;20032;-69
2023/10/23 22:09:13;;;;;;;10.23;9.20;;;;;;;;;;12636770;23;20489;-69
2023/10/23 22:14:09;;;;;;;9.65;8.75;;;;;;;;;;12634507;23;20028;-69
2023/10/23 22:19:06;;;;;;;11.15;9.38;;;;;;;;;;12636972;23;20025;-68
2023/10/23 22:24:02;;;;;;;10.68;9.57;;;;;;;;;;12629720;23;20031;-67
2023/10/23 22:28:59;;;;;;;11.02;9.93;;;;;;;;;;12635350;23;20016;-68
2023/10/23 22:33:55;;;;;;;17.52;9.98;;;;;;;;;;12630181;23;20092;-69
2023/10/23 22:38:52;;;;;;;10.82;8.98;;;;;;;;;;12635236;23;20028;-68
2023/10/23 22:43:48;;;;;;;14.48;9.60;;;;;;;;;;12633829;23;20048;-67
2023/10/23 22:48:44;;;;;;;10.15;9.25;;;;;;;;;;12634073;23;20020;-68
2023/10/23 22:53:41;;;;;;;11.35;10.15;;;;;;;;;;12635344;23;20076;-67
2023/10/23 22:58:38;;;;;;;10.57;9.57;;;;;;;;;;12635130;23;20059;-67
2023/10/23 23:03:34;;;;;;;10.15;9.00;;;;;;;;;;12634289;23;20422;-68
2023/10/23 23:08:35;;;;;;;10.13;9.13;;;;;;;;;;12635808;23;20020;-67
2023/10/23 23:13:32;;;;;;;9.63;8.68;;;;;;;;;;12634666;23;20024;-67
2023/10/23 23:18:29;;;;;;;10.30;9.35;;;;;;;;;;12633328;23;20023;-67
2023/10/23 23:23:25;;;;;;;10.95;9.90;;;;;;;;;;12634827;23;20017;-68
2023/10/23 23:28:22;;;;;;;12.15;9.65;;;;;;;;;;12635036;23;20528;-67
2023/10/23 23:33:18;;;;;;;10.38;9.38;;;;;;;;;;12622754;23;20024;-67
2023/10/23 23:38:14;;;;;;;12.02;10.23;;;;;;;;;;12634508;23;20036;-67
2023/10/23 23:43:11;;;;;;;15.18;10.68;;;;;;;;;;12634162;23;20047;-67
2023/10/23 23:48:07;;;;;;;11.35;10.35;;;;;;;;;;12633387;23;20108;-67
2023/10/23 23:53:04;;;;;;;11.52;10.43;;;;;;;;;;12634281;23;20031;-69
2023/10/23 23:58:00;;;;;;;11.43;10.40;;;;;;;;;;12634266;23;20032;-69
